SWR1LE LSZH-CYUL
Flight info
| Callsign | SWR1LE |
|---|---|
| Flight time | N/A |
| Altitude | 34000 |
| Route | VEBIT T10 TORPA DCT REKLA DCT RLP DCT ROTSI/N0459F360 DCT AMODO DCT COHPA UM729 RESMI UN491 LGL UN502 JSY DCT LIZAD DCT ARKIL DCT DOLIP DCT MALOT/M081F380 NATD NEEKO/N0448F380 N622E TAFFY DCT ATENE DCT KEBIG ROCKT3 |
| Aircraft | A343/H-SDE2E3FGHIJ4J5M1P2RWXYZ/LB1D1 |
Departure
| Time | 2026-04-26 08:55 |
|---|---|
| Airport | Zürich Airport (LSZH) |
Arrival
| Time | N/A |
|---|---|
| Airport | Montreal / Pierre Elliott Trudeau International Airport (CYUL) |
| Time | Latitude | Longitude | Altitude | Speed | Heading |
|---|---|---|---|---|---|
| 2026-04-26 08:22 | 47.46041 | 8.55624 | 1409 ft | 0 kts | 6° |
| 2026-04-26 08:42 | 47.46037 | 8.55623 | 1404 ft | 3 kts | 6° |
| 2026-04-26 08:42 | 47.46011 | 8.55619 | 1404 ft | 4 kts | 5° |
| 2026-04-26 08:42 | 47.45985 | 8.55620 | 1407 ft | 3 kts | 341° |
| 2026-04-26 08:43 | 47.45964 | 8.55634 | 1410 ft | 4 kts | 311° |
| 2026-04-26 08:43 | 47.45953 | 8.55667 | 1408 ft | 4 kts | 278° |
| 2026-04-26 08:43 | 47.45951 | 8.55697 | 1407 ft | 0 kts | 276° |
| 2026-04-26 08:45 | 47.45951 | 8.55696 | 1407 ft | 1 kts | 276° |
| 2026-04-26 08:45 | 47.45952 | 8.55679 | 1407 ft | 3 kts | 276° |
| 2026-04-26 08:46 | 47.45955 | 8.55640 | 1411 ft | 5 kts | 276° |
| 2026-04-26 08:46 | 47.45959 | 8.55586 | 1411 ft | 6 kts | 276° |
| 2026-04-26 08:46 | 47.45963 | 8.55522 | 1410 ft | 7 kts | 276° |
| 2026-04-26 08:46 | 47.45969 | 8.55446 | 1408 ft | 8 kts | 276° |
| 2026-04-26 08:47 | 47.45976 | 8.55355 | 1404 ft | 10 kts | 276° |
| 2026-04-26 08:47 | 47.45984 | 8.55250 | 1399 ft | 11 kts | 276° |
| 2026-04-26 08:47 | 47.45992 | 8.55132 | 1400 ft | 12 kts | 274° |
| 2026-04-26 08:47 | 47.45999 | 8.55001 | 1401 ft | 13 kts | 279° |
| 2026-04-26 08:48 | 47.46062 | 8.54911 | 1404 ft | 13 kts | 333° |
| 2026-04-26 08:48 | 47.46145 | 8.54854 | 1400 ft | 13 kts | 335° |
| 2026-04-26 08:48 | 47.46226 | 8.54798 | 1397 ft | 13 kts | 334° |
| 2026-04-26 08:48 | 47.46310 | 8.54739 | 1384 ft | 14 kts | 334° |
| 2026-04-26 08:49 | 47.46397 | 8.54679 | 1384 ft | 13 kts | 336° |
| 2026-04-26 08:49 | 47.46473 | 8.54629 | 1385 ft | 11 kts | 335° |
| 2026-04-26 08:49 | 47.46536 | 8.54585 | 1401 ft | 9 kts | 334° |
| 2026-04-26 08:49 | 47.46592 | 8.54546 | 1400 ft | 9 kts | 335° |
| 2026-04-26 08:50 | 47.46657 | 8.54502 | 1388 ft | 12 kts | 335° |
| 2026-04-26 08:50 | 47.46738 | 8.54449 | 1383 ft | 14 kts | 337° |
| 2026-04-26 08:50 | 47.46833 | 8.54394 | 1382 ft | 15 kts | 336° |
| 2026-04-26 08:50 | 47.46928 | 8.54330 | 1383 ft | 14 kts | 335° |
| 2026-04-26 08:51 | 47.47102 | 8.54210 | 1384 ft | 13 kts | 335° |
| 2026-04-26 08:51 | 47.47184 | 8.54154 | 1386 ft | 13 kts | 335° |
| 2026-04-26 08:51 | 47.47263 | 8.54100 | 1386 ft | 12 kts | 335° |
| 2026-04-26 08:52 | 47.47341 | 8.54046 | 1401 ft | 12 kts | 335° |
| 2026-04-26 08:52 | 47.47413 | 8.53996 | 1399 ft | 11 kts | 335° |
| 2026-04-26 08:52 | 47.47480 | 8.53951 | 1405 ft | 10 kts | 335° |
| 2026-04-26 08:52 | 47.47543 | 8.53907 | 1408 ft | 10 kts | 335° |
| 2026-04-26 08:53 | 47.47599 | 8.53839 | 1409 ft | 11 kts | 301° |
| 2026-04-26 08:53 | 47.47600 | 8.53727 | 1411 ft | 12 kts | 253° |
| 2026-04-26 08:53 | 47.47573 | 8.53632 | 1410 ft | 8 kts | 237° |
| 2026-04-26 08:53 | 47.47539 | 8.53616 | 1408 ft | 4 kts | 171° |
| 2026-04-26 08:54 | 47.47514 | 8.53633 | 1409 ft | 0 kts | 154° |
| 2026-04-26 08:54 | 47.47509 | 8.53636 | 1400 ft | 7 kts | 154° |
| 2026-04-26 08:55 | 47.47267 | 8.53805 | 1401 ft | 72 kts | 155° |
| 2026-04-26 08:55 | 47.46619 | 8.54252 | 1381 ft | 131 kts | 155° |
| 2026-04-26 08:55 | 47.45658 | 8.54918 | 1408 ft | 177 kts | 155° |
| 2026-04-26 08:55 | 47.44527 | 8.55653 | 2024 ft | 174 kts | 156° |
| 2026-04-26 08:56 | 47.43422 | 8.56409 | 2693 ft | 180 kts | 153° |
| 2026-04-26 08:56 | 47.42731 | 8.57158 | 2774 ft | 194 kts | 128° |
| 2026-04-26 08:56 | 47.42561 | 8.59780 | 2990 ft | 215 kts | 61° |
| 2026-04-26 08:56 | 47.43682 | 8.61281 | 3340 ft | 233 kts | 26° |
| 2026-04-26 08:57 | 47.45335 | 8.61550 | 3856 ft | 251 kts | 354° |
| 2026-04-26 08:57 | 47.46924 | 8.60372 | 4481 ft | 265 kts | 321° |
| 2026-04-26 08:57 | 47.47927 | 8.58064 | 5111 ft | 273 kts | 289° |
| 2026-04-26 08:57 | 47.48001 | 8.55292 | 5883 ft | 273 kts | 257° |
| 2026-04-26 08:58 | 47.47145 | 8.52823 | 6621 ft | 273 kts | 230° |
| 2026-04-26 08:58 | 47.45841 | 8.50808 | 7382 ft | 271 kts | 237° |
| 2026-04-26 08:58 | 47.45052 | 8.48268 | 7920 ft | 277 kts | 250° |
| 2026-04-26 08:58 | 47.44171 | 8.45685 | 8451 ft | 285 kts | 242° |
| 2026-04-26 08:59 | 47.43115 | 8.43200 | 9101 ft | 287 kts | 240° |
| 2026-04-26 08:59 | 47.42004 | 8.40737 | 9764 ft | 289 kts | 239° |
| 2026-04-26 08:59 | 47.40865 | 8.38268 | 10332 ft | 294 kts | 239° |
| 2026-04-26 08:59 | 47.39689 | 8.35726 | 10633 ft | 307 kts | 240° |
| 2026-04-26 09:00 | 47.38575 | 8.32961 | 10916 ft | 320 kts | 245° |
| 2026-04-26 09:00 | 47.37522 | 8.29996 | 11164 ft | 333 kts | 248° |
| 2026-04-26 09:00 | 47.36763 | 8.26735 | 11471 ft | 341 kts | 263° |
| 2026-04-26 09:00 | 47.36599 | 8.23207 | 11772 ft | 350 kts | 274° |
| 2026-04-26 09:01 | 47.36744 | 8.19583 | 12184 ft | 356 kts | 278° |
| 2026-04-26 09:01 | 47.37035 | 8.15947 | 12760 ft | 357 kts | 281° |
| 2026-04-26 09:01 | 47.37346 | 8.12303 | 13365 ft | 360 kts | 277° |
| 2026-04-26 09:01 | 47.37621 | 8.08606 | 13956 ft | 362 kts | 277° |
| 2026-04-26 09:02 | 47.37885 | 8.04892 | 14441 ft | 367 kts | 277° |
| 2026-04-26 09:02 | 47.38155 | 8.01126 | 14935 ft | 370 kts | 277° |
| 2026-04-26 09:02 | 47.38434 | 7.97352 | 15542 ft | 370 kts | 277° |
| 2026-04-26 09:02 | 47.38623 | 7.94851 | 15834 ft | 373 kts | 277° |
| 2026-04-26 09:03 | 47.38917 | 7.91038 | 16462 ft | 374 kts | 277° |
| 2026-04-26 09:03 | 47.39214 | 7.87205 | 16939 ft | 378 kts | 277° |
| 2026-04-26 09:03 | 47.39613 | 7.82060 | 17586 ft | 383 kts | 277° |
| 2026-04-26 09:03 | 47.39915 | 7.78137 | 18007 ft | 388 kts | 277° |
| 2026-04-26 09:04 | 47.40120 | 7.75451 | 18347 ft | 390 kts | 277° |
| 2026-04-26 09:04 | 47.40423 | 7.71485 | 18891 ft | 390 kts | 277° |
| 2026-04-26 09:04 | 47.40725 | 7.67498 | 19402 ft | 390 kts | 276° |
| 2026-04-26 09:04 | 47.41026 | 7.63519 | 19889 ft | 392 kts | 276° |
| 2026-04-26 09:05 | 47.41330 | 7.59480 | 20227 ft | 397 kts | 276° |
| 2026-04-26 09:05 | 47.41630 | 7.55470 | 20627 ft | 401 kts | 276° |
| 2026-04-26 09:05 | 47.41935 | 7.51373 | 21072 ft | 403 kts | 276° |
| 2026-04-26 09:05 | 47.42240 | 7.47262 | 21516 ft | 404 kts | 276° |
| 2026-04-26 09:06 | 47.42545 | 7.43123 | 21912 ft | 407 kts | 276° |
| 2026-04-26 09:06 | 47.42850 | 7.38960 | 22341 ft | 409 kts | 276° |
| 2026-04-26 09:06 | 47.43156 | 7.34768 | 22765 ft | 411 kts | 276° |
| 2026-04-26 09:06 | 47.43463 | 7.30562 | 23162 ft | 413 kts | 276° |
| 2026-04-26 09:07 | 47.43769 | 7.26331 | 23551 ft | 416 kts | 276° |
| 2026-04-26 09:07 | 47.44076 | 7.22069 | 23908 ft | 418 kts | 276° |
| 2026-04-26 09:07 | 47.44382 | 7.17792 | 24245 ft | 420 kts | 275° |
| 2026-04-26 09:07 | 47.44688 | 7.13497 | 24572 ft | 421 kts | 275° |
| 2026-04-26 09:08 | 47.44993 | 7.09186 | 24905 ft | 423 kts | 275° |
| 2026-04-26 09:08 | 47.45298 | 7.04857 | 25228 ft | 424 kts | 275° |
| 2026-04-26 09:08 | 47.45603 | 7.00509 | 25549 ft | 426 kts | 275° |
| 2026-04-26 09:08 | 47.45906 | 6.96150 | 25856 ft | 427 kts | 275° |
| 2026-04-26 09:09 | 47.46208 | 6.91776 | 26172 ft | 429 kts | 275° |
| 2026-04-26 09:09 | 47.46510 | 6.87384 | 26471 ft | 430 kts | 275° |
| 2026-04-26 09:09 | 47.46810 | 6.82980 | 26791 ft | 432 kts | 275° |
| 2026-04-26 09:09 | 47.47110 | 6.78562 | 27080 ft | 433 kts | 275° |
| 2026-04-26 09:10 | 47.47410 | 6.74126 | 27371 ft | 435 kts | 275° |
| 2026-04-26 09:10 | 47.47709 | 6.69670 | 27657 ft | 436 kts | 275° |
| 2026-04-26 09:10 | 47.48007 | 6.65207 | 27920 ft | 438 kts | 275° |
| 2026-04-26 09:10 | 47.48315 | 6.60719 | 28182 ft | 439 kts | 275° |
| 2026-04-26 09:11 | 47.48639 | 6.56221 | 28423 ft | 441 kts | 275° |
| 2026-04-26 09:11 | 47.48970 | 6.51710 | 28689 ft | 442 kts | 275° |
| 2026-04-26 09:11 | 47.49302 | 6.47178 | 28934 ft | 444 kts | 275° |
| 2026-04-26 09:11 | 47.49633 | 6.42635 | 29200 ft | 445 kts | 275° |
| 2026-04-26 09:12 | 47.49959 | 6.38079 | 29447 ft | 446 kts | 275° |
| 2026-04-26 09:12 | 47.50278 | 6.33566 | 29676 ft | 448 kts | 275° |
| 2026-04-26 09:12 | 47.50599 | 6.28987 | 29920 ft | 449 kts | 275° |